sensor_id;sensor_type;location;lat;lon;timestamp;temperature;humidity
8910;DHT22;4490;49.072;8.804;2023-09-18T00:02:11;24.40;76.30
8910;DHT22;4490;49.072;8.804;2023-09-18T00:04:37;24.40;76.30
8910;DHT22;4490;49.072;8.804;2023-09-18T00:07:03;24.40;76.40
8910;DHT22;4490;49.072;8.804;2023-09-18T00:09:28;24.40;76.50
8910;DHT22;4490;49.072;8.804;2023-09-18T00:11:54;24.40;76.60
8910;DHT22;4490;49.072;8.804;2023-09-18T00:14:19;24.40;76.80
8910;DHT22;4490;49.072;8.804;2023-09-18T00:16:45;24.40;76.80
8910;DHT22;4490;49.072;8.804;2023-09-18T00:19:10;24.40;76.70
8910;DHT22;4490;49.072;8.804;2023-09-18T00:21:36;24.40;76.70
8910;DHT22;4490;49.072;8.804;2023-09-18T00:24:03;24.40;76.60
8910;DHT22;4490;49.072;8.804;2023-09-18T00:26:28;24.40;76.50
8910;DHT22;4490;49.072;8.804;2023-09-18T00:28:54;24.40;76.50
8910;DHT22;4490;49.072;8.804;2023-09-18T00:31:20;24.40;76.50
8910;DHT22;4490;49.072;8.804;2023-09-18T00:33:45;24.40;76.40
8910;DHT22;4490;49.072;8.804;2023-09-18T00:36:11;24.50;76.60
8910;DHT22;4490;49.072;8.804;2023-09-18T00:38:37;24.40;76.60
8910;DHT22;4490;49.072;8.804;2023-09-18T00:41:03;24.50;76.90
8910;DHT22;4490;49.072;8.804;2023-09-18T00:43:28;24.50;76.70
8910;DHT22;4490;49.072;8.804;2023-09-18T00:45:54;24.40;76.70
8910;DHT22;4490;49.072;8.804;2023-09-18T00:48:20;24.40;77.30
8910;DHT22;4490;49.072;8.804;2023-09-18T00:50:46;24.40;77.20
8910;DHT22;4490;49.072;8.804;2023-09-18T00:53:20;24.40;76.50
8910;DHT22;4490;49.072;8.804;2023-09-18T00:55:47;24.50;76.80
8910;DHT22;4490;49.072;8.804;2023-09-18T00:58:13;24.40;76.80
8910;DHT22;4490;49.072;8.804;2023-09-18T01:00:39;24.50;76.70
8910;DHT22;4490;49.072;8.804;2023-09-18T01:03:06;24.40;76.70
8910;DHT22;4490;49.072;8.804;2023-09-18T01:05:35;24.40;76.70
8910;DHT22;4490;49.072;8.804;2023-09-18T01:08:01;24.40;76.80
8910;DHT22;4490;49.072;8.804;2023-09-18T01:10:32;24.40;76.70
8910;DHT22;4490;49.072;8.804;2023-09-18T01:13:21;24.40;76.70
8910;DHT22;4490;49.072;8.804;2023-09-18T01:15:55;24.40;76.80
8910;DHT22;4490;49.072;8.804;2023-09-18T01:18:22;24.40;76.70
8910;DHT22;4490;49.072;8.804;2023-09-18T01:20:48;24.40;76.70
8910;DHT22;4490;49.072;8.804;2023-09-18T01:23:13;24.40;76.50
8910;DHT22;4490;49.072;8.804;2023-09-18T01:25:39;24.40;76.40
8910;DHT22;4490;49.072;8.804;2023-09-18T01:28:05;24.50;76.50
8910;DHT22;4490;49.072;8.804;2023-09-18T01:30:30;24.50;76.60
8910;DHT22;4490;49.072;8.804;2023-09-18T01:32:58;24.50;76.60
8910;DHT22;4490;49.072;8.804;2023-09-18T01:35:26;24.50;76.50
8910;DHT22;4490;49.072;8.804;2023-09-18T01:37:59;24.50;76.50
8910;DHT22;4490;49.072;8.804;2023-09-18T01:40:25;24.50;76.60
8910;DHT22;4490;49.072;8.804;2023-09-18T01:42:52;24.50;76.60
8910;DHT22;4490;49.072;8.804;2023-09-18T01:45:18;24.60;76.50
8910;DHT22;4490;49.072;8.804;2023-09-18T01:47:43;24.60;76.40
8910;DHT22;4490;49.072;8.804;2023-09-18T01:50:10;24.60;76.10
8910;DHT22;4490;49.072;8.804;2023-09-18T01:52:36;24.60;76.00
8910;DHT22;4490;49.072;8.804;2023-09-18T01:55:02;24.60;75.80
8910;DHT22;4490;49.072;8.804;2023-09-18T01:57:29;24.60;75.80
8910;DHT22;4490;49.072;8.804;2023-09-18T01:59:55;24.70;76.00
8910;DHT22;4490;49.072;8.804;2023-09-18T02:02:21;24.70;75.90
8910;DHT22;4490;49.072;8.804;2023-09-18T02:04:46;24.60;75.90
8910;DHT22;4490;49.072;8.804;2023-09-18T02:07:12;24.60;76.10
8910;DHT22;4490;49.072;8.804;2023-09-18T02:09:38;24.60;76.20
8910;DHT22;4490;49.072;8.804;2023-09-18T02:12:04;24.60;77.30
8910;DHT22;4490;49.072;8.804;2023-09-18T02:14:29;24.40;79.80
8910;DHT22;4490;49.072;8.804;2023-09-18T02:16:56;24.40;81.50
8910;DHT22;4490;49.072;8.804;2023-09-18T02:19:21;24.20;83.10
8910;DHT22;4490;49.072;8.804;2023-09-18T02:21:47;24.00;84.60
8910;DHT22;4490;49.072;8.804;2023-09-18T02:24:12;23.80;86.50
8910;DHT22;4490;49.072;8.804;2023-09-18T02:26:38;23.50;88.60
8910;DHT22;4490;49.072;8.804;2023-09-18T02:29:07;23.30;91.00
8910;DHT22;4490;49.072;8.804;2023-09-18T02:31:33;23.10;93.90
8910;DHT22;4490;49.072;8.804;2023-09-18T02:33:58;22.90;97.80
8910;DHT22;4490;49.072;8.804;2023-09-18T02:36:24;22.80;99.90
8910;DHT22;4490;49.072;8.804;2023-09-18T02:38:50;22.70;99.90
8910;DHT22;4490;49.072;8.804;2023-09-18T02:41:15;22.50;99.90
8910;DHT22;4490;49.072;8.804;2023-09-18T02:43:41;22.40;99.90
8910;DHT22;4490;49.072;8.804;2023-09-18T02:46:08;22.30;99.90
8910;DHT22;4490;49.072;8.804;2023-09-18T02:48:34;22.20;99.90
8910;DHT22;4490;49.072;8.804;2023-09-18T02:51:00;22.10;99.90
8910;DHT22;4490;49.072;8.804;2023-09-18T02:53:26;22.10;99.90
8910;DHT22;4490;49.072;8.804;2023-09-18T02:55:53;22.00;99.90
8910;DHT22;4490;49.072;8.804;2023-09-18T02:58:20;21.90;99.90
8910;DHT22;4490;49.072;8.804;2023-09-18T03:00:48;21.80;99.90
8910;DHT22;4490;49.072;8.804;2023-09-18T03:03:14;21.70;99.90
8910;DHT22;4490;49.072;8.804;2023-09-18T03:05:41;21.60;99.90
8910;DHT22;4490;49.072;8.804;2023-09-18T03:08:08;21.50;99.90
8910;DHT22;4490;49.072;8.804;2023-09-18T03:10:34;21.50;99.90
8910;DHT22;4490;49.072;8.804;2023-09-18T03:13:01;21.50;99.90
8910;DHT22;4490;49.072;8.804;2023-09-18T03:15:27;21.40;99.90
8910;DHT22;4490;49.072;8.804;2023-09-18T03:17:53;21.40;99.90
8910;DHT22;4490;49.072;8.804;2023-09-18T03:20:21;21.40;99.90
8910;DHT22;4490;49.072;8.804;2023-09-18T03:22:47;21.40;99.90
8910;DHT22;4490;49.072;8.804;2023-09-18T03:25:12;21.40;99.90
8910;DHT22;4490;49.072;8.804;2023-09-18T03:27:38;21.40;99.90
8910;DHT22;4490;49.072;8.804;2023-09-18T03:30:04;21.40;99.90
8910;DHT22;4490;49.072;8.804;2023-09-18T03:32:30;21.40;99.90
8910;DHT22;4490;49.072;8.804;2023-09-18T03:34:55;21.40;99.90
8910;DHT22;4490;49.072;8.804;2023-09-18T03:37:21;21.40;99.90
8910;DHT22;4490;49.072;8.804;2023-09-18T03:39:46;21.40;99.90
8910;DHT22;4490;49.072;8.804;2023-09-18T03:42:12;21.40;99.90
8910;DHT22;4490;49.072;8.804;2023-09-18T03:44:38;21.40;99.90
8910;DHT22;4490;49.072;8.804;2023-09-18T03:47:03;21.40;99.90
8910;DHT22;4490;49.072;8.804;2023-09-18T03:49:29;21.40;99.90
8910;DHT22;4490;49.072;8.804;2023-09-18T03:51:55;21.40;99.90
8910;DHT22;4490;49.072;8.804;2023-09-18T03:54:21;21.40;99.90
8910;DHT22;4490;49.072;8.804;2023-09-18T03:56:46;21.40;99.90
8910;DHT22;4490;49.072;8.804;2023-09-18T03:59:13;21.40;99.90
8910;DHT22;4490;49.072;8.804;2023-09-18T04:01:39;21.40;99.90
8910;DHT22;4490;49.072;8.804;2023-09-18T04:04:05;21.40;99.90
8910;DHT22;4490;49.072;8.804;2023-09-18T04:06:42;21.40;99.90
8910;DHT22;4490;49.072;8.804;2023-09-18T04:09:08;21.50;99.90
8910;DHT22;4490;49.072;8.804;2023-09-18T04:11:34;21.40;99.90
8910;DHT22;4490;49.072;8.804;2023-09-18T04:14:01;21.50;99.90
8910;DHT22;4490;49.072;8.804;2023-09-18T04:16:28;21.50;99.90
8910;DHT22;4490;49.072;8.804;2023-09-18T04:18:54;21.50;99.90
8910;DHT22;4490;49.072;8.804;2023-09-18T04:21:20;21.50;99.90
8910;DHT22;4490;49.072;8.804;2023-09-18T04:23:47;21.50;99.90
8910;DHT22;4490;49.072;8.804;2023-09-18T04:26:12;21.40;99.90
8910;DHT22;4490;49.072;8.804;2023-09-18T04:28:41;21.40;99.90
8910;DHT22;4490;49.072;8.804;2023-09-18T04:31:07;21.30;99.90
8910;DHT22;4490;49.072;8.804;2023-09-18T04:33:33;21.20;99.90
8910;DHT22;4490;49.072;8.804;2023-09-18T04:35:58;21.10;99.90
8910;DHT22;4490;49.072;8.804;2023-09-18T04:38:24;21.10;99.90
8910;DHT22;4490;49.072;8.804;2023-09-18T04:40:56;21.00;99.90
8910;DHT22;4490;49.072;8.804;2023-09-18T04:43:22;21.00;99.90
8910;DHT22;4490;49.072;8.804;2023-09-18T04:45:49;21.00;99.90
8910;DHT22;4490;49.072;8.804;2023-09-18T04:48:14;21.00;99.90
8910;DHT22;4490;49.072;8.804;2023-09-18T04:50:40;21.00;99.90
8910;DHT22;4490;49.072;8.804;2023-09-18T04:53:05;20.90;99.90
8910;DHT22;4490;49.072;8.804;2023-09-18T04:55:31;20.90;99.90
8910;DHT22;4490;49.072;8.804;2023-09-18T04:57:57;20.80;99.90
8910;DHT22;4490;49.072;8.804;2023-09-18T05:00:24;20.80;99.90
8910;DHT22;4490;49.072;8.804;2023-09-18T05:02:51;20.80;99.90
8910;DHT22;4490;49.072;8.804;2023-09-18T05:05:17;20.80;99.90
8910;DHT22;4490;49.072;8.804;2023-09-18T05:07:43;20.80;99.90
8910;DHT22;4490;49.072;8.804;2023-09-18T05:10:09;20.80;99.90
8910;DHT22;4490;49.072;8.804;2023-09-18T05:12:35;20.80;99.90
8910;DHT22;4490;49.072;8.804;2023-09-18T05:15:01;20.70;99.90
8910;DHT22;4490;49.072;8.804;2023-09-18T05:17:44;20.70;99.90
8910;DHT22;4490;49.072;8.804;2023-09-18T05:20:12;20.70;99.90
8910;DHT22;4490;49.072;8.804;2023-09-18T05:22:41;20.70;99.90
8910;DHT22;4490;49.072;8.804;2023-09-18T05:25:11;20.70;99.90
8910;DHT22;4490;49.072;8.804;2023-09-18T05:27:37;20.70;99.90
8910;DHT22;4490;49.072;8.804;2023-09-18T05:30:19;20.70;99.90
8910;DHT22;4490;49.072;8.804;2023-09-18T05:32:49;20.70;99.90
8910;DHT22;4490;49.072;8.804;2023-09-18T05:35:14;20.70;99.90
8910;DHT22;4490;49.072;8.804;2023-09-18T05:37:43;20.80;99.90
8910;DHT22;4490;49.072;8.804;2023-09-18T05:40:13;20.80;99.90
8910;DHT22;4490;49.072;8.804;2023-09-18T05:42:42;20.80;99.90
8910;DHT22;4490;49.072;8.804;2023-09-18T05:45:12;20.80;99.90
8910;DHT22;4490;49.072;8.804;2023-09-18T05:47:38;20.70;99.90
8910;DHT22;4490;49.072;8.804;2023-09-18T05:50:10;20.70;99.90
8910;DHT22;4490;49.072;8.804;2023-09-18T05:52:40;20.60;99.90
8910;DHT22;4490;49.072;8.804;2023-09-18T05:55:06;20.60;99.90
8910;DHT22;4490;49.072;8.804;2023-09-18T05:57:35;20.60;99.90
8910;DHT22;4490;49.072;8.804;2023-09-18T06:00:01;20.60;99.90
8910;DHT22;4490;49.072;8.804;2023-09-18T06:02:27;20.60;99.90
8910;DHT22;4490;49.072;8.804;2023-09-18T06:04:56;20.60;99.90
8910;DHT22;4490;49.072;8.804;2023-09-18T06:07:32;20.60;99.90
8910;DHT22;4490;49.072;8.804;2023-09-18T06:09:58;20.60;99.90
8910;DHT22;4490;49.072;8.804;2023-09-18T06:12:24;20.70;99.90
8910;DHT22;4490;49.072;8.804;2023-09-18T06:14:52;20.70;99.90
8910;DHT22;4490;49.072;8.804;2023-09-18T06:17:18;20.70;99.90
8910;DHT22;4490;49.072;8.804;2023-09-18T06:19:45;20.70;99.90
8910;DHT22;4490;49.072;8.804;2023-09-18T06:22:11;20.80;99.90
8910;DHT22;4490;49.072;8.804;2023-09-18T06:24:37;20.80;99.90
8910;DHT22;4490;49.072;8.804;2023-09-18T06:27:03;20.80;99.90
8910;DHT22;4490;49.072;8.804;2023-09-18T06:29:35;20.90;99.90
8910;DHT22;4490;49.072;8.804;2023-09-18T06:32:01;20.90;99.90
8910;DHT22;4490;49.072;8.804;2023-09-18T06:34:27;20.90;99.90
8910;DHT22;4490;49.072;8.804;2023-09-18T06:36:53;20.90;99.90
8910;DHT22;4490;49.072;8.804;2023-09-18T06:39:19;20.90;99.90
8910;DHT22;4490;49.072;8.804;2023-09-18T06:41:47;21.00;99.90
8910;DHT22;4490;49.072;8.804;2023-09-18T06:44:13;20.90;99.90
8910;DHT22;4490;49.072;8.804;2023-09-18T06:46:39;20.90;99.90
8910;DHT22;4490;49.072;8.804;2023-09-18T06:49:05;20.90;99.90
8910;DHT22;4490;49.072;8.804;2023-09-18T06:51:30;20.90;99.90
8910;DHT22;4490;49.072;8.804;2023-09-18T06:53:56;20.90;99.90
8910;DHT22;4490;49.072;8.804;2023-09-18T06:56:25;20.90;99.90
8910;DHT22;4490;49.072;8.804;2023-09-18T06:58:51;20.90;99.90
8910;DHT22;4490;49.072;8.804;2023-09-18T07:01:20;20.90;99.90
8910;DHT22;4490;49.072;8.804;2023-09-18T07:03:47;20.90;99.90
8910;DHT22;4490;49.072;8.804;2023-09-18T07:06:16;21.00;99.90
8910;DHT22;4490;49.072;8.804;2023-09-18T07:08:44;21.00;99.90
8910;DHT22;4490;49.072;8.804;2023-09-18T07:11:09;21.00;99.90
8910;DHT22;4490;49.072;8.804;2023-09-18T07:13:35;21.00;99.90
8910;DHT22;4490;49.072;8.804;2023-09-18T07:16:01;21.00;99.90
8910;DHT22;4490;49.072;8.804;2023-09-18T07:18:28;21.00;99.90
8910;DHT22;4490;49.072;8.804;2023-09-18T07:20:54;21.00;99.90
8910;DHT22;4490;49.072;8.804;2023-09-18T07:23:20;21.00;99.90
8910;DHT22;4490;49.072;8.804;2023-09-18T07:25:47;21.00;99.90
8910;DHT22;4490;49.072;8.804;2023-09-18T07:28:13;21.00;99.90
8910;DHT22;4490;49.072;8.804;2023-09-18T07:30:43;21.00;99.90
8910;DHT22;4490;49.072;8.804;2023-09-18T07:33:09;21.00;99.90
8910;DHT22;4490;49.072;8.804;2023-09-18T07:35:35;21.00;99.90
8910;DHT22;4490;49.072;8.804;2023-09-18T07:38:01;21.00;99.90
8910;DHT22;4490;49.072;8.804;2023-09-18T07:40:26;21.00;99.90
8910;DHT22;4490;49.072;8.804;2023-09-18T07:42:52;21.00;99.90
8910;DHT22;4490;49.072;8.804;2023-09-18T07:45:18;21.00;99.90
8910;DHT22;4490;49.072;8.804;2023-09-18T07:47:44;20.90;99.90
8910;DHT22;4490;49.072;8.804;2023-09-18T07:50:09;20.90;99.90
8910;DHT22;4490;49.072;8.804;2023-09-18T07:52:36;20.90;99.90
8910;DHT22;4490;49.072;8.804;2023-09-18T07:55:01;21.00;99.90
8910;DHT22;4490;49.072;8.804;2023-09-18T07:57:27;21.00;99.90
8910;DHT22;4490;49.072;8.804;2023-09-18T07:59:58;21.00;99.90
8910;DHT22;4490;49.072;8.804;2023-09-18T08:02:24;21.00;99.90
8910;DHT22;4490;49.072;8.804;2023-09-18T08:04:50;21.00;99.90
8910;DHT22;4490;49.072;8.804;2023-09-18T08:07:18;21.10;99.90
8910;DHT22;4490;49.072;8.804;2023-09-18T08:09:44;21.10;99.90
8910;DHT22;4490;49.072;8.804;2023-09-18T08:12:10;21.10;99.90
8910;DHT22;4490;49.072;8.804;2023-09-18T08:14:36;21.10;99.90
8910;DHT22;4490;49.072;8.804;2023-09-18T08:17:02;21.10;99.90
8910;DHT22;4490;49.072;8.804;2023-09-18T08:19:33;21.10;99.90
8910;DHT22;4490;49.072;8.804;2023-09-18T08:21:59;21.20;99.90
8910;DHT22;4490;49.072;8.804;2023-09-18T08:24:29;21.10;99.90
8910;DHT22;4490;49.072;8.804;2023-09-18T08:26:55;21.10;99.90
8910;DHT22;4490;49.072;8.804;2023-09-18T08:29:21;21.10;99.90
8910;DHT22;4490;49.072;8.804;2023-09-18T08:31:48;21.10;99.90
8910;DHT22;4490;49.072;8.804;2023-09-18T08:34:14;21.10;99.90
8910;DHT22;4490;49.072;8.804;2023-09-18T08:36:40;21.10;99.90
8910;DHT22;4490;49.072;8.804;2023-09-18T08:39:05;21.10;99.90
8910;DHT22;4490;49.072;8.804;2023-09-18T08:41:32;21.10;99.90
8910;DHT22;4490;49.072;8.804;2023-09-18T08:44:02;21.20;99.90
8910;DHT22;4490;49.072;8.804;2023-09-18T08:46:31;21.20;99.90
8910;DHT22;4490;49.072;8.804;2023-09-18T08:49:00;21.20;99.90
8910;DHT22;4490;49.072;8.804;2023-09-18T08:51:27;21.20;99.90
8910;DHT22;4490;49.072;8.804;2023-09-18T08:53:54;21.20;99.90
8910;DHT22;4490;49.072;8.804;2023-09-18T08:56:21;21.30;99.90
8910;DHT22;4490;49.072;8.804;2023-09-18T08:58:47;21.30;99.90
8910;DHT22;4490;49.072;8.804;2023-09-18T09:01:12;21.30;99.90
8910;DHT22;4490;49.072;8.804;2023-09-18T09:03:40;21.30;99.90
8910;DHT22;4490;49.072;8.804;2023-09-18T09:06:07;21.30;99.90
8910;DHT22;4490;49.072;8.804;2023-09-18T09:08:33;21.30;99.90
8910;DHT22;4490;49.072;8.804;2023-09-18T09:10:59;21.20;99.90
8910;DHT22;4490;49.072;8.804;2023-09-18T09:13:26;21.10;99.90
8910;DHT22;4490;49.072;8.804;2023-09-18T09:16:01;21.10;99.90
8910;DHT22;4490;49.072;8.804;2023-09-18T09:18:30;21.00;99.90
8910;DHT22;4490;49.072;8.804;2023-09-18T09:21:03;21.00;99.90
8910;DHT22;4490;49.072;8.804;2023-09-18T09:23:51;20.90;99.90
8910;DHT22;4490;49.072;8.804;2023-09-18T09:26:19;20.90;99.90
8910;DHT22;4490;49.072;8.804;2023-09-18T09:28:46;20.80;99.90
8910;DHT22;4490;49.072;8.804;2023-09-18T09:31:22;20.80;99.90
8910;DHT22;4490;49.072;8.804;2023-09-18T09:33:51;20.70;99.90
8910;DHT22;4490;49.072;8.804;2023-09-18T09:36:22;20.70;99.90
8910;DHT22;4490;49.072;8.804;2023-09-18T09:38:48;20.70;99.90
8910;DHT22;4490;49.072;8.804;2023-09-18T09:41:18;20.70;99.90
8910;DHT22;4490;49.072;8.804;2023-09-18T09:43:44;20.80;99.90
8910;DHT22;4490;49.072;8.804;2023-09-18T09:46:16;20.80;99.90
8910;DHT22;4490;49.072;8.804;2023-09-18T09:49:05;20.90;99.90
8910;DHT22;4490;49.072;8.804;2023-09-18T09:51:32;20.90;99.90
8910;DHT22;4490;49.072;8.804;2023-09-18T09:53:59;20.90;99.90
8910;DHT22;4490;49.072;8.804;2023-09-18T09:56:44;20.90;99.90
8910;DHT22;4490;49.072;8.804;2023-09-18T09:59:11;21.00;99.90
8910;DHT22;4490;49.072;8.804;2023-09-18T10:01:38;21.00;99.90
8910;DHT22;4490;49.072;8.804;2023-09-18T10:04:14;21.00;99.90
8910;DHT22;4490;49.072;8.804;2023-09-18T10:06:44;21.00;99.90
8910;DHT22;4490;49.072;8.804;2023-09-18T10:09:13;21.00;99.90
8910;DHT22;4490;49.072;8.804;2023-09-18T10:11:45;21.00;99.90
8910;DHT22;4490;49.072;8.804;2023-09-18T10:14:23;21.00;99.90
8910;DHT22;4490;49.072;8.804;2023-09-18T10:16:57;21.00;99.90
8910;DHT22;4490;49.072;8.804;2023-09-18T10:19:40;21.00;99.90
8910;DHT22;4490;49.072;8.804;2023-09-18T10:24:50;21.00;99.90
8910;DHT22;4490;49.072;8.804;2023-09-18T10:27:18;21.00;99.90
8910;DHT22;4490;49.072;8.804;2023-09-18T10:29:49;21.00;99.90
8910;DHT22;4490;49.072;8.804;2023-09-18T10:32:15;21.10;99.90
8910;DHT22;4490;49.072;8.804;2023-09-18T10:34:41;21.10;99.90
8910;DHT22;4490;49.072;8.804;2023-09-18T10:37:10;21.20;99.90
8910;DHT22;4490;49.072;8.804;2023-09-18T10:39:38;21.20;99.90
8910;DHT22;4490;49.072;8.804;2023-09-18T10:42:08;21.20;99.90
8910;DHT22;4490;49.072;8.804;2023-09-18T10:44:34;21.30;99.90
8910;DHT22;4490;49.072;8.804;2023-09-18T10:47:02;21.30;99.90
8910;DHT22;4490;49.072;8.804;2023-09-18T10:49:31;21.40;99.90
8910;DHT22;4490;49.072;8.804;2023-09-18T10:51:57;21.40;99.90
8910;DHT22;4490;49.072;8.804;2023-09-18T10:54:25;21.40;99.90
8910;DHT22;4490;49.072;8.804;2023-09-18T10:56:52;21.40;99.90
8910;DHT22;4490;49.072;8.804;2023-09-18T10:59:18;21.30;99.90
8910;DHT22;4490;49.072;8.804;2023-09-18T11:01:44;21.30;99.90
8910;DHT22;4490;49.072;8.804;2023-09-18T11:04:11;21.40;99.90
8910;DHT22;4490;49.072;8.804;2023-09-18T11:09:25;21.40;99.90
8910;DHT22;4490;49.072;8.804;2023-09-18T11:14:48;21.50;99.90
8910;DHT22;4490;49.072;8.804;2023-09-18T11:17:37;21.50;99.90
8910;DHT22;4490;49.072;8.804;2023-09-18T11:22:55;21.60;99.90
8910;DHT22;4490;49.072;8.804;2023-09-18T11:25:49;21.70;99.90
8910;DHT22;4490;49.072;8.804;2023-09-18T11:28:24;21.70;99.90
8910;DHT22;4490;49.072;8.804;2023-09-18T11:30:57;21.80;99.90
8910;DHT22;4490;49.072;8.804;2023-09-18T11:33:35;21.80;99.90
8910;DHT22;4490;49.072;8.804;2023-09-18T11:38:57;21.90;99.90
8910;DHT22;4490;49.072;8.804;2023-09-18T11:41:30;22.00;99.90
8910;DHT22;4490;49.072;8.804;2023-09-18T11:46:50;22.10;99.90
8910;DHT22;4490;49.072;8.804;2023-09-18T11:49:24;22.10;99.90
8910;DHT22;4490;49.072;8.804;2023-09-18T11:51:53;22.10;99.90
8910;DHT22;4490;49.072;8.804;2023-09-18T11:54:19;22.10;99.90
8910;DHT22;4490;49.072;8.804;2023-09-18T11:56:46;22.20;99.90
8910;DHT22;4490;49.072;8.804;2023-09-18T11:59:12;22.20;99.90
8910;DHT22;4490;49.072;8.804;2023-09-18T12:01:38;22.20;99.90
8910;DHT22;4490;49.072;8.804;2023-09-18T12:04:11;22.30;99.90
8910;DHT22;4490;49.072;8.804;2023-09-18T12:06:41;22.30;99.90
8910;DHT22;4490;49.072;8.804;2023-09-18T12:09:08;22.40;99.90
8910;DHT22;4490;49.072;8.804;2023-09-18T12:11:41;22.40;99.90
8910;DHT22;4490;49.072;8.804;2023-09-18T12:14:07;22.50;99.90
8910;DHT22;4490;49.072;8.804;2023-09-18T12:16:39;22.50;99.90
8910;DHT22;4490;49.072;8.804;2023-09-18T12:19:05;22.60;99.90
8910;DHT22;4490;49.072;8.804;2023-09-18T12:21:32;22.60;99.90
8910;DHT22;4490;49.072;8.804;2023-09-18T12:23:58;22.60;99.90
8910;DHT22;4490;49.072;8.804;2023-09-18T12:26:25;22.60;99.90
8910;DHT22;4490;49.072;8.804;2023-09-18T12:28:51;22.60;99.90
8910;DHT22;4490;49.072;8.804;2023-09-18T12:31:17;22.70;99.90
8910;DHT22;4490;49.072;8.804;2023-09-18T12:33:43;22.70;99.90
8910;DHT22;4490;49.072;8.804;2023-09-18T12:36:10;22.70;99.90
8910;DHT22;4490;49.072;8.804;2023-09-18T12:38:36;22.80;99.90
8910;DHT22;4490;49.072;8.804;2023-09-18T12:41:03;22.80;99.90
8910;DHT22;4490;49.072;8.804;2023-09-18T12:43:42;22.90;99.90
8910;DHT22;4490;49.072;8.804;2023-09-18T12:46:09;23.00;99.90
8910;DHT22;4490;49.072;8.804;2023-09-18T12:48:39;23.00;99.90
8910;DHT22;4490;49.072;8.804;2023-09-18T12:51:12;23.00;99.90
8910;DHT22;4490;49.072;8.804;2023-09-18T12:53:37;23.00;99.90
8910;DHT22;4490;49.072;8.804;2023-09-18T12:56:13;23.00;99.90
8910;DHT22;4490;49.072;8.804;2023-09-18T12:58:43;23.10;99.90
8910;DHT22;4490;49.072;8.804;2023-09-18T13:01:10;23.10;99.90
8910;DHT22;4490;49.072;8.804;2023-09-18T13:03:46;23.20;99.90
8910;DHT22;4490;49.072;8.804;2023-09-18T13:06:18;23.30;99.90
8910;DHT22;4490;49.072;8.804;2023-09-18T13:08:48;23.30;99.90
8910;DHT22;4490;49.072;8.804;2023-09-18T13:11:14;23.40;99.90
8910;DHT22;4490;49.072;8.804;2023-09-18T13:13:42;23.50;99.90
8910;DHT22;4490;49.072;8.804;2023-09-18T13:16:09;23.50;99.90
8910;DHT22;4490;49.072;8.804;2023-09-18T13:18:35;23.50;99.90
8910;DHT22;4490;49.072;8.804;2023-09-18T13:21:09;23.50;99.90
8910;DHT22;4490;49.072;8.804;2023-09-18T13:23:36;23.50;99.90
8910;DHT22;4490;49.072;8.804;2023-09-18T13:26:04;23.40;99.90
8910;DHT22;4490;49.072;8.804;2023-09-18T13:28:29;23.40;99.90
8910;DHT22;4490;49.072;8.804;2023-09-18T13:30:57;23.50;99.90
8910;DHT22;4490;49.072;8.804;2023-09-18T13:33:23;23.50;99.90
8910;DHT22;4490;49.072;8.804;2023-09-18T13:35:51;23.60;99.90
8910;DHT22;4490;49.072;8.804;2023-09-18T13:38:18;23.60;99.90
8910;DHT22;4490;49.072;8.804;2023-09-18T13:40:46;23.70;99.90
8910;DHT22;4490;49.072;8.804;2023-09-18T13:43:13;23.70;99.90
8910;DHT22;4490;49.072;8.804;2023-09-18T13:45:44;23.70;99.90
8910;DHT22;4490;49.072;8.804;2023-09-18T13:48:09;23.70;99.90
8910;DHT22;4490;49.072;8.804;2023-09-18T13:50:36;23.70;99.90
8910;DHT22;4490;49.072;8.804;2023-09-18T13:53:02;23.70;99.90
8910;DHT22;4490;49.072;8.804;2023-09-18T13:55:29;23.70;99.70
8910;DHT22;4490;49.072;8.804;2023-09-18T13:57:55;23.70;99.30
8910;DHT22;4490;49.072;8.804;2023-09-18T14:00:22;23.70;98.90
8910;DHT22;4490;49.072;8.804;2023-09-18T14:02:47;23.70;98.60
8910;DHT22;4490;49.072;8.804;2023-09-18T14:05:13;23.70;98.50
8910;DHT22;4490;49.072;8.804;2023-09-18T14:07:38;23.80;98.80
8910;DHT22;4490;49.072;8.804;2023-09-18T14:10:08;23.80;98.90
8910;DHT22;4490;49.072;8.804;2023-09-18T14:12:39;23.80;99.00
8910;DHT22;4490;49.072;8.804;2023-09-18T14:15:09;23.80;99.00
8910;DHT22;4490;49.072;8.804;2023-09-18T14:17:35;23.90;99.40
8910;DHT22;4490;49.072;8.804;2023-09-18T14:20:02;23.90;98.90
8910;DHT22;4490;49.072;8.804;2023-09-18T14:22:32;24.00;99.10
8910;DHT22;4490;49.072;8.804;2023-09-18T14:24:58;24.00;98.50
8910;DHT22;4490;49.072;8.804;2023-09-18T14:27:23;24.00;97.90
8910;DHT22;4490;49.072;8.804;2023-09-18T14:29:49;24.00;97.90
8910;DHT22;4490;49.072;8.804;2023-09-18T14:32:14;24.10;98.50
8910;DHT22;4490;49.072;8.804;2023-09-18T14:34:40;24.20;98.90
8910;DHT22;4490;49.072;8.804;2023-09-18T14:37:06;24.40;99.00
8910;DHT22;4490;49.072;8.804;2023-09-18T14:39:33;24.60;97.90
8910;DHT22;4490;49.072;8.804;2023-09-18T14:41:58;24.80;96.20
8910;DHT22;4490;49.072;8.804;2023-09-18T14:44:27;24.90;95.30
8910;DHT22;4490;49.072;8.804;2023-09-18T14:46:53;24.90;94.50
8910;DHT22;4490;49.072;8.804;2023-09-18T14:49:19;25.00;94.20
8910;DHT22;4490;49.072;8.804;2023-09-18T14:51:45;25.00;93.80
8910;DHT22;4490;49.072;8.804;2023-09-18T14:54:11;25.00;93.70
8910;DHT22;4490;49.072;8.804;2023-09-18T14:56:37;25.00;93.40
8910;DHT22;4490;49.072;8.804;2023-09-18T14:59:03;25.00;92.90
8910;DHT22;4490;49.072;8.804;2023-09-18T15:01:29;25.00;93.10
8910;DHT22;4490;49.072;8.804;2023-09-18T15:03:55;24.90;92.60
8910;DHT22;4490;49.072;8.804;2023-09-18T15:06:20;24.80;92.40
8910;DHT22;4490;49.072;8.804;2023-09-18T15:08:46;24.70;92.20
8910;DHT22;4490;49.072;8.804;2023-09-18T15:11:12;24.60;92.80
8910;DHT22;4490;49.072;8.804;2023-09-18T15:13:38;24.60;93.30
8910;DHT22;4490;49.072;8.804;2023-09-18T15:16:04;24.70;93.20
8910;DHT22;4490;49.072;8.804;2023-09-18T15:18:31;24.70;93.00
8910;DHT22;4490;49.072;8.804;2023-09-18T15:20:57;24.80;92.70
8910;DHT22;4490;49.072;8.804;2023-09-18T15:23:25;24.80;92.30
8910;DHT22;4490;49.072;8.804;2023-09-18T15:25:52;24.80;92.00
8910;DHT22;4490;49.072;8.804;2023-09-18T15:28:21;24.80;91.80
8910;DHT22;4490;49.072;8.804;2023-09-18T15:30:49;24.70;91.70
8910;DHT22;4490;49.072;8.804;2023-09-18T15:33:15;24.70;92.00
8910;DHT22;4490;49.072;8.804;2023-09-18T15:35:46;24.80;91.60
8910;DHT22;4490;49.072;8.804;2023-09-18T15:38:11;24.80;91.40
8910;DHT22;4490;49.072;8.804;2023-09-18T15:40:38;24.70;91.30
8910;DHT22;4490;49.072;8.804;2023-09-18T15:43:04;24.70;91.10
8910;DHT22;4490;49.072;8.804;2023-09-18T15:45:31;24.70;91.00
8910;DHT22;4490;49.072;8.804;2023-09-18T15:47:56;24.60;91.00
8910;DHT22;4490;49.072;8.804;2023-09-18T15:50:22;24.60;90.70
8910;DHT22;4490;49.072;8.804;2023-09-18T15:52:48;24.60;90.60
8910;DHT22;4490;49.072;8.804;2023-09-18T15:55:14;24.60;90.80
8910;DHT22;4490;49.072;8.804;2023-09-18T15:57:41;24.50;90.80
8910;DHT22;4490;49.072;8.804;2023-09-18T16:00:10;24.50;90.80
8910;DHT22;4490;49.072;8.804;2023-09-18T16:02:38;24.50;90.90
8910;DHT22;4490;49.072;8.804;2023-09-18T16:05:04;24.50;90.90
8910;DHT22;4490;49.072;8.804;2023-09-18T16:07:30;24.40;90.80
8910;DHT22;4490;49.072;8.804;2023-09-18T16:09:56;24.30;90.70
8910;DHT22;4490;49.072;8.804;2023-09-18T16:12:23;24.20;90.70
8910;DHT22;4490;49.072;8.804;2023-09-18T16:14:49;24.10;91.00
8910;DHT22;4490;49.072;8.804;2023-09-18T16:17:14;24.10;90.90
8910;DHT22;4490;49.072;8.804;2023-09-18T16:19:41;24.00;91.20
8910;DHT22;4490;49.072;8.804;2023-09-18T16:22:09;24.00;91.30